WetterOnline ( https://www.wetteronline.de )

Wetter aktuell Stuttgart

Aktuelles Wetter: Schnarrenberg/Stuttgart (315m)

6-stündlich | Neueste Meldungen
Ortszeit Temperatur Wetter
Mo, 27.05. 14:00 18.7° C bedeckt
Mo, 27.05. 8:00 14.8° C bewölkt
Mo, 27.05. 2:00 16.6° C bewölkt
So, 26.05. 20:00 17.6° C Sprühregen
So, 26.05. 14:00 22.2° C wolkig
So, 26.05. 8:00 12.8° C wolkenlos
So, 26.05. 2:00 11.9° C Nebel
Sa, 25.05. 20:00 15.8° C leichter Regen
Ortszeit Temperatur Wetter
Mo, 27.05. 14:00 18.7° C bedeckt
Mo, 27.05. 13:50 18.7° C bedeckt
Mo, 27.05. 13:40 18.5° C bedeckt
Mo, 27.05. 13:30 18.3° C bedeckt
Mo, 27.05. 13:20 18.3° C bedeckt
Mo, 27.05. 13:10 18.5° C bedeckt
Mo, 27.05. 13:00 19.0° C wolkig
Mo, 27.05. 12:30 19.4° C bewölkt
Mo, 27.05. 12:00 19.7° C bewölkt
Mo, 27.05. 11:30 18.7° C wolkig
Mo, 27.05. 11:00 17.9° C bewölkt
Ortszeit Relative Feuchte Sichtweite
Mo, 27.05. 14:00 70% >70 km
Mo, 27.05. 8:00 93% 40 km
Mo, 27.05. 2:00 75% 60 km
So, 26.05. 20:00 73% >70 km
So, 26.05. 14:00 44% >70 km
So, 26.05. 8:00 84% 55 km
So, 26.05. 2:00 95% 30 km
Sa, 25.05. 20:00 78% 23 km
Ortszeit Relative Feuchte Sichtweite
Mo, 27.05. 14:00 70% >70 km
Mo, 27.05. 13:50 70% -
Mo, 27.05. 13:40 70% -
Mo, 27.05. 13:30 70% >70 km
Mo, 27.05. 13:20 70% -
Mo, 27.05. 13:10 70% -
Mo, 27.05. 13:00 68% 60 km
Mo, 27.05. 12:30 66% 45 km
Mo, 27.05. 12:00 63% 50 km
Mo, 27.05. 11:30 68% 65 km
Mo, 27.05. 11:00 75% >70 km
Ortszeit Niederschlagsmenge Niederschlagsart
Mo, 27.05. 14:00 0.1 l/m2 in 6 Std. Regen
Mo, 27.05. 8:00 2 l/m2 in 12 Std. Regen
Mo, 27.05. 2:00 0.1 l/m2 in 6 Std. Regen
So, 26.05. 20:00 0.2 l/m2 in 12 Std. Regen
So, 26.05. 14:00 0.0 l/m2 in 6 Std. -
So, 26.05. 8:00 0.1 l/m2 in 12 Std. -
So, 26.05. 2:00 0.1 l/m2 in 6 Std. Regen
Sa, 25.05. 20:00 1 l/m2 in 12 Std. Regen
Ortszeit Niederschlagsmenge Niederschlagsart
Mo, 27.05. 14:00 0.0 l/m2 in 1 Std. Regen
Mo, 27.05. 13:50 keine Meldung -
Mo, 27.05. 13:40 keine Meldung -
Mo, 27.05. 13:30 0.0 l/m2 in 30 Min -
Mo, 27.05. 13:20 keine Meldung -
Mo, 27.05. 13:10 keine Meldung -
Mo, 27.05. 13:00 0.0 l/m2 in 1 Std. -
Mo, 27.05. 12:30 0.0 l/m2 in 30 Min -
Mo, 27.05. 12:00 0.0 l/m2 in 1 Std. -
Mo, 27.05. 11:30 0.0 l/m2 in 30 Min -
Mo, 27.05. 11:00 0.0 l/m2 in 1 Std. Regen
Ortszeit Stärke Spitze Richtung
km/h Bft. km/h Grad Sektor
Mo, 27.05. 14:00 14 3 29 140° SO
Mo, 27.05. 8:00 7 2 18 170° S
Mo, 27.05. 2:00 7 2 18 180° S
So, 26.05. 20:00 7 2 47 280° W
So, 26.05. 14:00 14 3 29 150° SO
So, 26.05. 8:00 13 3 20 140° SO
So, 26.05. 2:00 11 2 18 150° SO
Sa, 25.05. 20:00 2 1 31 330° NW
Ortszeit Stärke Spitze Richtung
km/h Bft. km/h Grad Sektor
Mo, 27.05. 14:00 14 3 29 140° SO
Mo, 27.05. 13:50 14 3 - 140° SO
Mo, 27.05. 13:40 18 3 - 130° SO
Mo, 27.05. 13:30 19 3 26 140° SO
Mo, 27.05. 13:20 19 3 - 140° SO
Mo, 27.05. 13:10 14 3 - 130° SO
Mo, 27.05. 13:00 13 3 20 120° SO
Mo, 27.05. 12:30 9 2 19 140° SO
Mo, 27.05. 12:00 9 2 17 140° SO
Mo, 27.05. 11:30 6 1 17 200° S
Mo, 27.05. 11:00 9 2 15 130° SO
Ortszeit Untergrenze Bedeckung Gattung
total tief tief mittel hoch
Mo, 27.05. 14:00 2700 m 8/8 8/8 - - -
Mo, 27.05. 8:00 1050 m 8/8 7/8 - - -
Mo, 27.05. 2:00 1800 m 8/8 7/8 - - -
So, 26.05. 20:00 1800 m 8/8 8/8 - - -
So, 26.05. 14:00 1500 m 8/8 1/8 - - -
So, 26.05. 8:00 - 0/8 0/8 - - -
So, 26.05. 2:00 9000 m 2/8 0/8 - - -
Sa, 25.05. 20:00 1800 m 8/8 8/8 - - -
Ortszeit Bedeckungsgrad in Achtel und Wolkenuntergrenze
Mo, 27.05. 14:00 8(2700m)
Mo, 27.05. 13:50 8(2700m)
Mo, 27.05. 13:40 8
Mo, 27.05. 13:30 1(990m) 8(2700m)
Mo, 27.05. 13:20 1(990m) 8(2700m)
Mo, 27.05. 13:10 8
Mo, 27.05. 13:00 4(960m) 7(3000m) 7(5100m)
Mo, 27.05. 12:30 4(870m) 7(1800m) 8(3000m)
Mo, 27.05. 12:00 3(780m) 6(1800m) 8(3000m)
Mo, 27.05. 11:30 3(1290m) 7(3000m)
Mo, 27.05. 11:00 1(540m) 7(1200m) 7(1410m)
Ortszeit Luftdruck NN (hPa) Tendenz (hPa in 3 Std.)
Mo, 27.05. 14:00 1017 - 1,3
Mo, 27.05. 8:00 1019 + 0,4
Mo, 27.05. 2:00 1018 + 0,1
So, 26.05. 20:00 1018 + 1,2
So, 26.05. 14:00 1017 - 0,6
So, 26.05. 8:00 1019 + 0,4
So, 26.05. 2:00 1019 - 0,1
Sa, 25.05. 20:00 1017 + 0,4
Ortszeit Luftdruck NN (hPa) Tendenz (hPa in 3 Std.)
Mo, 27.05. 14:00 1017 - 1,3
Mo, 27.05. 13:50 1017 keine Meldung
Mo, 27.05. 13:40 1017 keine Meldung
Mo, 27.05. 13:30 1018 - 1,0
Mo, 27.05. 13:20 1018 keine Meldung
Mo, 27.05. 13:10 1018 keine Meldung
Mo, 27.05. 13:00 1018 - 0,9
Mo, 27.05. 12:30 1018 - 1,0
Mo, 27.05. 12:00 1018 - 0,9
Mo, 27.05. 11:30 1018 - 0,5
Mo, 27.05. 11:00 1019 - 0,3
Ortszeit Schneehöhe (cm)
Mo, 27.05. 14:00 0
Mo, 27.05. 8:00 0
Mo, 27.05. 2:00 0
So, 26.05. 20:00 0
So, 26.05. 14:00 0
So, 26.05. 8:00 0
So, 26.05. 2:00 0
Sa, 25.05. 20:00 0
Ortszeit Schneehöhe (cm)
Mo, 27.05. 14:00 0
Mo, 27.05. 13:50 0
Mo, 27.05. 13:40 -
Mo, 27.05. 13:30 0
Mo, 27.05. 13:20 0
Mo, 27.05. 13:10 -
Mo, 27.05. 13:00 0
Mo, 27.05. 12:30 0
Mo, 27.05. 12:00 0
Mo, 27.05. 11:30 0
Mo, 27.05. 11:00 0
Link zu dieser Seite / Seite empfehlen

Das Wetter in ...